createdAt,value
2019-02-18T00:00:04.611Z,6.17
2019-02-18T00:02:45.403Z,6.27
2019-02-18T00:05:26.206Z,7.40
2019-02-18T00:08:07.013Z,6.87
2019-02-18T00:10:47.625Z,6.43
2019-02-18T00:13:28.517Z,6.50
2019-02-18T00:16:09.559Z,6.00
2019-02-18T00:18:50.033Z,7.10
2019-02-18T00:21:30.694Z,7.13
2019-02-18T00:24:11.670Z,6.33
2019-02-18T00:26:52.650Z,6.57
2019-02-18T00:29:33.140Z,7.80
2019-02-18T00:32:13.842Z,6.63
2019-02-18T00:34:54.533Z,6.57
2019-02-18T00:37:35.419Z,6.60
2019-02-18T00:40:15.841Z,7.10
2019-02-18T00:42:56.454Z,6.90
2019-02-18T00:45:37.504Z,8.00
2019-02-18T00:48:18.247Z,6.87
2019-02-18T00:50:58.891Z,7.33
2019-02-18T00:53:39.875Z,7.00
2019-02-18T00:56:20.282Z,7.73
2019-02-18T00:59:00.942Z,7.33
2019-02-18T01:01:41.510Z,7.43
2019-02-18T01:04:22.338Z,7.57
2019-02-18T01:07:03.102Z,7.53
2019-02-18T01:09:43.941Z,8.30
2019-02-18T01:12:24.342Z,7.20
2019-02-18T01:15:05.247Z,7.33
2019-02-18T01:17:46.415Z,9.13
2019-02-18T01:20:27.286Z,9.57
2019-02-18T01:23:07.858Z,7.60
2019-02-18T01:25:48.633Z,8.63
2019-02-18T01:28:29.530Z,7.77
2019-02-18T01:31:10.390Z,7.90
2019-02-18T01:33:51.211Z,8.80
2019-02-18T01:36:31.816Z,9.57
2019-02-18T01:39:12.713Z,10.63
2019-02-18T01:41:56.310Z,9.07
2019-02-18T01:44:37.215Z,9.70
2019-02-18T01:47:18.006Z,9.20
2019-02-18T01:49:58.580Z,10.77
2019-02-18T01:52:39.350Z,9.80
2019-02-18T01:55:19.830Z,9.73
2019-02-18T01:58:00.788Z,9.23
2019-02-18T02:00:41.145Z,9.90
2019-02-18T02:03:21.743Z,9.40
2019-02-18T02:06:02.565Z,8.23
2019-02-18T02:08:43.409Z,8.37
2019-02-18T02:11:23.962Z,10.60
2019-02-18T02:14:04.825Z,10.03
2019-02-18T02:16:33.678Z,9.60
2019-02-18T02:19:14.293Z,9.27
2019-02-18T02:21:54.844Z,9.90
2019-02-18T02:24:35.229Z,9.73
2019-02-18T02:27:15.980Z,9.53
2019-02-18T02:29:56.702Z,9.00
2019-02-18T02:32:37.517Z,9.20
2019-02-18T02:35:18.380Z,10.10
2019-02-18T02:38:07.300Z,10.20
2019-02-18T02:40:42.012Z,10.27
2019-02-18T02:43:22.475Z,8.80
2019-02-18T02:46:02.909Z,9.67
2019-02-18T02:48:43.737Z,8.37
2019-02-18T02:51:24.423Z,10.20
2019-02-18T02:54:05.066Z,11.27
2019-02-18T02:56:45.705Z,9.80
2019-02-18T02:59:26.150Z,11.17
2019-02-18T03:02:06.725Z,11.17
2019-02-18T03:04:47.406Z,11.70
2019-02-18T03:07:27.909Z,9.13
2019-02-18T03:10:08.442Z,9.70
2019-02-18T03:12:49.231Z,10.20
2019-02-18T03:15:30.041Z,11.33
2019-02-18T03:18:10.917Z,9.57
2019-02-18T03:20:51.503Z,10.30
2019-02-18T03:23:32.266Z,10.30
2019-02-18T03:26:13.176Z,10.17
2019-02-18T03:28:54.345Z,9.23
2019-02-18T03:31:35.033Z,11.40
2019-02-18T03:34:15.830Z,10.83
2019-02-18T03:36:56.638Z,11.10
2019-02-18T03:39:37.078Z,10.73
2019-02-18T03:42:17.746Z,10.00
2019-02-18T03:44:58.664Z,11.00
2019-02-18T03:47:39.185Z,10.20
2019-02-18T03:50:20.059Z,9.67
2019-02-18T03:53:00.783Z,9.87
2019-02-18T03:55:41.465Z,11.53
2019-02-18T03:58:21.874Z,11.13
2019-02-18T04:01:02.973Z,12.27
2019-02-18T04:03:43.630Z,9.87
2019-02-18T04:06:24.276Z,10.80
2019-02-18T04:09:05.632Z,10.13
2019-02-18T04:11:46.528Z,11.77
2019-02-18T04:14:27.103Z,12.20
2019-02-18T04:17:07.691Z,10.63
2019-02-18T04:19:48.358Z,11.33
2019-02-18T04:22:29.198Z,10.30
2019-02-18T04:25:09.981Z,10.23
2019-02-18T04:27:50.906Z,11.30
2019-02-18T04:30:31.333Z,10.93
2019-02-18T04:33:11.949Z,12.17
2019-02-18T04:35:52.562Z,11.77
2019-02-18T04:38:33.682Z,11.33
2019-02-18T04:41:14.467Z,11.00
2019-02-18T04:43:55.191Z,9.93
2019-02-18T04:46:35.755Z,11.10
2019-02-18T04:49:16.324Z,9.30
2019-02-18T04:51:57.044Z,9.80
2019-02-18T04:54:37.818Z,10.60
2019-02-18T04:57:18.717Z,10.03
2019-02-18T04:59:59.451Z,10.60
2019-02-18T05:02:40.101Z,11.40
2019-02-18T05:05:20.843Z,9.00
2019-02-18T05:08:01.648Z,10.37
2019-02-18T05:10:42.454Z,10.97
2019-02-18T05:13:23.428Z,9.33
2019-02-18T05:16:04.113Z,10.03
2019-02-18T05:18:45.061Z,9.97
2019-02-18T05:21:25.676Z,10.73
2019-02-18T05:24:06.477Z,11.43
2019-02-18T05:26:47.063Z,10.87
2019-02-18T05:29:28.170Z,11.00
2019-02-18T05:32:08.881Z,9.60
2019-02-18T05:34:49.641Z,10.60
2019-02-18T05:37:30.301Z,12.00
2019-02-18T05:40:11.082Z,9.57
2019-02-18T05:42:52.363Z,10.97
2019-02-18T05:45:33.336Z,10.00
2019-02-18T05:48:14.057Z,9.53
2019-02-18T05:50:54.437Z,9.23
2019-02-18T05:53:35.308Z,9.40
2019-02-18T05:56:15.797Z,10.60
2019-02-18T05:58:56.561Z,9.50
2019-02-18T06:01:37.595Z,9.83
2019-02-18T06:04:18.411Z,10.20
2019-02-18T06:06:58.847Z,9.97
2019-02-18T06:09:39.547Z,8.97
2019-02-18T06:12:20.253Z,9.80
2019-02-18T06:15:01.172Z,10.03
2019-02-18T06:17:41.759Z,10.10
2019-02-18T06:20:22.579Z,9.90
2019-02-18T06:23:03.608Z,9.77
2019-02-18T06:25:44.067Z,9.60
2019-02-18T06:28:24.737Z,9.70
2019-02-18T06:31:05.198Z,10.77
2019-02-18T06:33:46.089Z,10.50
2019-02-18T06:36:26.527Z,10.33
2019-02-18T06:39:07.447Z,10.80
2019-02-18T06:41:48.174Z,10.07
2019-02-18T06:44:48.639Z,10.03
2019-02-18T06:47:30.103Z,9.97
2019-02-18T06:50:11.125Z,11.63
2019-02-18T06:52:51.836Z,11.80
2019-02-18T06:55:32.358Z,10.57
2019-02-18T06:58:19.398Z,10.30
2019-02-18T07:04:12.044Z,10.57
2019-02-18T07:07:04.702Z,10.40
2019-02-18T07:10:05.761Z,10.63
2019-02-18T07:12:49.959Z,11.20
2019-02-18T07:15:30.457Z,9.63
2019-02-18T07:18:11.413Z,10.17
2019-02-18T07:20:52.088Z,9.37
2019-02-18T07:23:32.928Z,10.10
2019-02-18T07:26:13.602Z,11.67
2019-02-18T07:28:54.599Z,11.23
2019-02-18T07:31:34.966Z,10.40
2019-02-18T07:34:15.720Z,10.83
2019-02-18T07:36:56.461Z,11.73
2019-02-18T07:39:37.834Z,10.47
2019-02-18T07:42:18.777Z,10.93
2019-02-18T07:44:59.873Z,10.20
2019-02-18T07:47:40.352Z,12.17
2019-02-18T07:50:21.204Z,12.40
2019-02-18T07:53:01.616Z,11.77
2019-02-18T07:55:42.449Z,9.70
2019-02-18T07:58:23.233Z,11.10
2019-02-18T08:01:03.889Z,12.00
2019-02-18T08:03:44.552Z,11.77
2019-02-18T08:06:25.319Z,9.90
2019-02-18T08:09:05.748Z,10.60
2019-02-18T08:11:46.657Z,11.63
2019-02-18T08:14:27.222Z,11.57
2019-02-18T08:17:08.259Z,11.33
2019-02-18T08:19:49.238Z,10.87
2019-02-18T08:22:29.572Z,10.27
2019-02-18T08:25:10.390Z,10.77
2019-02-18T08:27:50.907Z,11.97
2019-02-18T08:30:31.604Z,11.10
2019-02-18T08:33:12.235Z,11.30
2019-02-18T08:35:53.014Z,12.90
2019-02-18T08:38:33.754Z,12.30
2019-02-18T08:41:14.584Z,11.73
2019-02-18T08:43:55.282Z,10.50
2019-02-18T08:46:35.959Z,10.40
2019-02-18T08:49:16.914Z,10.03
2019-02-18T08:51:57.756Z,9.53
2019-02-18T08:54:38.547Z,9.57
2019-02-18T08:57:19.065Z,10.67
2019-02-18T08:59:59.488Z,10.83
2019-02-18T09:02:40.078Z,10.67
2019-02-18T09:05:20.885Z,10.10
2019-02-18T09:08:01.693Z,9.77
2019-02-18T09:10:42.429Z,10.37
2019-02-18T09:13:23.251Z,9.27
2019-02-18T09:16:04.046Z,9.80
2019-02-18T09:18:44.779Z,9.20
2019-02-18T09:21:26.941Z,10.10
2019-02-18T09:24:14.721Z,9.10
2019-02-18T09:26:55.084Z,9.13
2019-02-18T09:29:35.789Z,9.27
2019-02-18T09:32:16.654Z,8.47
2019-02-18T09:35:02.105Z,7.27
2019-02-18T09:37:40.531Z,10.33
2019-02-18T09:40:21.316Z,10.03
2019-02-18T09:43:02.085Z,9.73
2019-02-18T09:45:43.054Z,9.83
2019-02-18T09:48:23.914Z,10.17
2019-02-18T09:51:04.584Z,10.50
2019-02-18T09:53:45.366Z,10.37
2019-02-18T09:56:26.175Z,10.33
2019-02-18T09:59:06.914Z,10.27
2019-02-18T10:01:47.652Z,10.70
2019-02-18T10:04:28.501Z,8.53
2019-02-18T10:07:09.555Z,8.30
2019-02-18T10:09:50.369Z,9.33
2019-02-18T10:12:31.095Z,10.83
2019-02-18T10:15:11.765Z,7.67
2019-02-18T10:17:52.562Z,8.03
2019-02-18T10:20:32.990Z,8.10
2019-02-18T10:23:13.797Z,7.97
2019-02-18T10:25:54.509Z,6.67
2019-02-18T10:28:35.385Z,6.80
2019-02-18T10:31:16.266Z,6.07
2019-02-18T10:33:57.156Z,5.97
2019-02-18T10:36:37.911Z,6.47
2019-02-18T10:39:18.503Z,6.60
2019-02-18T10:41:59.437Z,6.30
2019-02-18T10:44:40.204Z,6.37
2019-02-18T10:47:20.982Z,5.80
2019-02-18T10:50:01.697Z,6.70
2019-02-18T10:52:42.356Z,6.50
2019-02-18T10:55:22.979Z,6.50
2019-02-18T10:58:03.813Z,6.87
2019-02-18T11:00:44.398Z,6.67
2019-02-18T11:03:25.174Z,6.90
2019-02-18T11:06:05.551Z,6.30
2019-02-18T11:08:46.407Z,6.40
2019-02-18T11:11:27.636Z,7.00
2019-02-18T11:14:08.953Z,8.10
2019-02-18T11:16:50.687Z,7.30
2019-02-18T11:19:31.125Z,7.47
2019-02-18T11:22:11.887Z,6.80
2019-02-18T11:24:52.950Z,7.67
2019-02-18T11:27:33.643Z,8.00
2019-02-18T11:30:14.244Z,7.70
2019-02-18T11:32:54.827Z,8.03
2019-02-18T11:35:35.571Z,9.17
2019-02-18T11:38:16.466Z,9.43
2019-02-18T11:40:56.994Z,9.50
2019-02-18T11:43:37.889Z,9.10
2019-02-18T11:46:18.569Z,8.63
2019-02-18T11:48:59.273Z,8.20
2019-02-18T11:51:40.224Z,10.20
2019-02-18T11:54:20.771Z,8.17
2019-02-18T11:57:01.437Z,8.10
2019-02-18T11:59:42.140Z,9.63
2019-02-18T12:02:23.128Z,7.67
2019-02-18T12:05:03.500Z,8.47
2019-02-18T12:07:44.107Z,8.17
2019-02-18T12:10:24.917Z,9.50
2019-02-18T12:13:05.708Z,8.80
2019-02-18T12:15:46.370Z,9.77
2019-02-18T12:18:27.415Z,12.27
2019-02-18T12:21:08.290Z,9.60
2019-02-18T12:23:49.165Z,10.07
2019-02-18T12:26:29.989Z,9.83
2019-02-18T12:29:10.835Z,10.63
2019-02-18T12:31:51.355Z,10.70
2019-02-18T12:34:32.294Z,9.20
2019-02-18T12:37:12.990Z,10.00
2019-02-18T12:39:54.019Z,10.50
2019-02-18T12:42:34.617Z,9.93
2019-02-18T12:45:15.146Z,9.73
2019-02-18T12:47:55.963Z,9.87
2019-02-18T12:50:36.903Z,9.63
2019-02-18T12:53:18.266Z,9.97
2019-02-18T12:55:59.146Z,8.90
2019-02-18T12:58:39.766Z,10.60
2019-02-18T13:01:20.410Z,8.73
2019-02-18T13:04:01.168Z,9.20
2019-02-18T13:06:42.102Z,8.60
2019-02-18T13:09:23.768Z,8.53
2019-02-18T13:12:04.370Z,8.80
2019-02-18T13:14:45.011Z,8.73
2019-02-18T13:17:25.479Z,9.30
2019-02-18T13:20:06.495Z,7.57
2019-02-18T13:22:46.897Z,9.37
2019-02-18T13:25:27.463Z,9.33
2019-02-18T13:28:08.789Z,8.90
2019-02-18T13:30:50.028Z,9.40
2019-02-18T13:33:30.705Z,9.27
2019-02-18T13:36:11.405Z,9.40
2019-02-18T13:38:52.153Z,9.10
2019-02-18T13:41:32.862Z,9.10
2019-02-18T13:44:13.911Z,8.90
2019-02-18T13:46:54.234Z,8.97
2019-02-18T13:49:35.223Z,9.17
2019-02-18T13:52:16.270Z,9.00
2019-02-18T13:54:57.210Z,8.00
2019-02-18T13:57:38.018Z,8.50
2019-02-18T14:00:20.029Z,9.10
2019-02-18T14:03:01.567Z,8.03
2019-02-18T14:05:41.948Z,8.87
2019-02-18T14:08:22.721Z,7.90
2019-02-18T14:11:03.427Z,8.37
2019-02-18T14:13:43.895Z,8.40
2019-02-18T14:16:24.567Z,8.20
2019-02-18T14:19:05.181Z,8.60
2019-02-18T14:21:45.829Z,8.60
2019-02-18T14:24:26.377Z,8.70
2019-02-18T14:27:06.999Z,8.80
2019-02-18T14:29:47.923Z,10.00
2019-02-18T14:32:27.138Z,9.37
2019-02-18T14:35:15.710Z,8.60
2019-02-18T14:47:05.270Z,10.73
2019-02-18T14:49:53.287Z,10.60
2019-02-18T14:52:41.515Z,11.50
2019-02-18T14:55:29.877Z,10.90
2019-02-18T14:58:17.865Z,11.23
2019-02-18T15:01:07.867Z,11.43
2019-02-18T15:04:07.581Z,10.67
2019-02-18T15:06:45.775Z,11.20
2019-02-18T15:09:34.036Z,10.03
2019-02-18T15:15:50.175Z,9.87
2019-02-18T15:18:38.218Z,9.97
2019-02-18T15:21:19.129Z,12.00
2019-02-18T15:23:59.932Z,10.53
2019-02-18T15:26:41.053Z,12.00
2019-02-18T15:29:22.287Z,11.90
2019-02-18T15:32:03.294Z,11.30
2019-02-18T15:34:43.685Z,10.80
2019-02-18T15:37:24.605Z,12.53
2019-02-18T15:40:06.017Z,10.23
2019-02-18T15:42:46.624Z,11.40
2019-02-18T15:45:27.326Z,11.23
2019-02-18T15:48:08.194Z,12.33
2019-02-18T15:50:48.546Z,10.27
2019-02-18T15:53:29.646Z,11.30
2019-02-18T15:56:10.304Z,11.83
2019-02-18T15:58:50.949Z,11.63
2019-02-18T16:01:31.672Z,12.70
2019-02-18T16:04:12.558Z,11.70
2019-02-18T16:06:53.207Z,11.80
2019-02-18T16:09:34.021Z,11.23
2019-02-18T16:12:14.911Z,11.60
2019-02-18T16:14:55.457Z,13.53
2019-02-18T16:17:36.023Z,11.83
2019-02-18T16:20:17.421Z,11.97
2019-02-18T16:22:58.265Z,13.73
2019-02-18T16:25:39.177Z,13.60
2019-02-18T16:28:20.792Z,14.53
2019-02-18T16:31:01.501Z,12.70
2019-02-18T16:33:42.318Z,13.23
2019-02-18T16:36:23.062Z,13.00
2019-02-18T16:39:03.953Z,14.60
2019-02-18T16:41:44.909Z,12.00
2019-02-18T16:44:25.678Z,13.13
2019-02-18T16:47:06.299Z,14.00
2019-02-18T16:49:47.861Z,13.43
2019-02-18T16:52:28.534Z,12.80
2019-02-18T16:55:09.653Z,12.07
2019-02-18T16:57:50.487Z,12.90
2019-02-18T17:00:33.151Z,12.73
2019-02-18T17:03:13.598Z,13.63
2019-02-18T17:05:54.680Z,14.30
2019-02-18T17:08:35.456Z,12.30
2019-02-18T17:11:16.172Z,12.70
2019-02-18T17:13:57.006Z,11.60
2019-02-18T17:16:37.795Z,11.90
2019-02-18T17:19:18.435Z,10.97
2019-02-18T17:21:59.435Z,11.73
2019-02-18T17:24:40.205Z,11.53
2019-02-18T17:27:20.990Z,10.37
2019-02-18T17:30:02.037Z,13.77
2019-02-18T17:32:42.820Z,10.33
2019-02-18T17:35:23.511Z,11.17
2019-02-18T17:38:04.321Z,11.10
2019-02-18T17:40:45.117Z,11.60
2019-02-18T17:43:26.082Z,10.33
2019-02-18T17:46:06.558Z,11.70
2019-02-18T17:48:47.141Z,11.07
2019-02-18T17:51:28.192Z,11.10
2019-02-18T17:54:08.791Z,11.63
2019-02-18T17:56:49.341Z,11.70
2019-02-18T17:59:30.091Z,12.57
2019-02-18T18:02:11.495Z,12.90
2019-02-18T18:04:52.157Z,13.67
2019-02-18T18:07:32.930Z,12.60
2019-02-18T18:10:14.170Z,13.77
2019-02-18T18:12:55.531Z,13.73
2019-02-18T18:15:36.646Z,14.70
2019-02-18T18:18:17.273Z,15.30
2019-02-18T18:20:57.923Z,13.37
2019-02-18T18:23:38.508Z,12.10
2019-02-18T18:26:19.386Z,12.33
2019-02-18T18:29:00.516Z,12.30
2019-02-18T18:31:41.262Z,11.23
2019-02-18T18:34:21.861Z,10.53
2019-02-18T18:37:02.948Z,12.70
2019-02-18T18:39:43.669Z,11.70
2019-02-18T18:42:24.382Z,11.10
2019-02-18T18:45:04.910Z,10.60
2019-02-18T18:47:45.859Z,12.20
2019-02-18T18:50:26.491Z,10.30
2019-02-18T18:53:07.238Z,10.80
2019-02-18T18:55:48.055Z,10.93
2019-02-18T18:58:28.925Z,11.03
2019-02-18T19:01:09.665Z,9.97
2019-02-18T19:03:50.399Z,12.13
2019-02-18T19:06:30.821Z,10.63
2019-02-18T19:09:11.807Z,11.00
2019-02-18T19:11:52.555Z,12.17
2019-02-18T19:14:33.370Z,10.13
2019-02-18T19:17:14.456Z,12.27
2019-02-18T19:19:57.825Z,11.63
2019-02-18T19:22:37.574Z,10.50
2019-02-18T19:25:18.382Z,11.27
2019-02-18T19:27:59.535Z,11.27
2019-02-18T19:30:40.314Z,11.90
2019-02-18T19:33:21.266Z,11.57
2019-02-18T19:36:01.993Z,10.73
2019-02-18T19:38:43.425Z,11.47
2019-02-18T19:41:23.999Z,9.73
2019-02-18T19:44:05.109Z,10.70
2019-02-18T19:46:46.397Z,13.20
2019-02-18T19:49:27.143Z,10.00
2019-02-18T19:52:07.799Z,12.20
2019-02-18T19:54:49.286Z,11.87
2019-02-18T19:57:30.524Z,12.67
2019-02-18T20:00:10.947Z,9.90
2019-02-18T20:02:51.905Z,11.33
2019-02-18T20:05:33.208Z,9.63
2019-02-18T20:08:14.212Z,8.77
2019-02-18T20:10:54.692Z,8.57
2019-02-18T20:13:35.592Z,8.13
2019-02-18T20:16:16.333Z,8.70
2019-02-18T20:18:57.229Z,7.80
2019-02-18T20:21:38.218Z,7.63
2019-02-18T20:24:19.415Z,7.50
2019-02-18T20:27:00.382Z,6.80
2019-02-18T20:29:41.321Z,8.27
2019-02-18T20:32:22.575Z,7.50
2019-02-18T20:35:02.948Z,8.30
2019-02-18T20:37:44.103Z,8.73
2019-02-18T20:40:33.821Z,7.30
2019-02-18T20:43:02.712Z,7.87
2019-02-18T20:48:45.142Z,8.13
2019-02-18T20:51:52.722Z,7.53
2019-02-18T20:54:40.739Z,8.63
2019-02-18T20:57:29.097Z,8.13
2019-02-18T21:00:18.321Z,7.50
2019-02-18T21:03:06.340Z,7.00
2019-02-18T21:05:56.174Z,7.97
2019-02-18T21:08:44.639Z,8.50
2019-02-18T21:11:32.634Z,7.10
2019-02-18T21:14:20.602Z,7.53
2019-02-18T21:17:08.979Z,6.77
2019-02-18T21:19:57.069Z,7.53
2019-02-18T21:22:37.961Z,8.20
2019-02-18T21:25:19.389Z,7.80
2019-02-18T21:27:59.982Z,8.67
2019-02-18T21:30:41.317Z,7.60
2019-02-18T21:33:22.162Z,9.13
2019-02-18T21:36:02.561Z,9.77
2019-02-18T21:38:43.249Z,8.47
2019-02-18T21:41:24.084Z,7.67
2019-02-18T21:44:04.826Z,8.77
2019-02-18T21:46:45.920Z,8.40
2019-02-18T21:49:26.656Z,8.07
2019-02-18T21:52:07.142Z,7.93
2019-02-18T21:54:47.822Z,7.70
2019-02-18T21:57:28.974Z,7.53
2019-02-18T22:00:16.285Z,8.77
2019-02-18T22:02:57.102Z,8.83
2019-02-18T22:05:37.702Z,8.00
2019-02-18T22:08:18.502Z,8.50
2019-02-18T22:10:59.049Z,8.20
2019-02-18T22:13:39.873Z,8.03
2019-02-18T22:16:20.602Z,8.30
2019-02-18T22:19:01.429Z,7.87
2019-02-18T22:21:42.405Z,8.30
2019-02-18T22:24:23.240Z,7.70
2019-02-18T22:27:04.088Z,8.30
2019-02-18T22:29:44.842Z,8.50
2019-02-18T22:32:25.294Z,7.60
2019-02-18T22:35:06.078Z,9.50
2019-02-18T22:37:46.800Z,9.33
2019-02-18T22:40:27.600Z,7.60
2019-02-18T22:43:08.349Z,8.30
2019-02-18T22:45:49.925Z,7.70
2019-02-18T22:48:30.685Z,8.70
2019-02-18T22:51:11.459Z,7.87
2019-02-18T22:53:52.109Z,7.87
2019-02-18T22:56:32.759Z,8.17
2019-02-18T22:59:13.566Z,7.03
2019-02-18T23:01:54.933Z,6.70
2019-02-18T23:04:35.542Z,7.00
2019-02-18T23:07:16.405Z,6.53
2019-02-18T23:09:57.362Z,7.70
2019-02-18T23:12:37.911Z,6.97
2019-02-18T23:15:18.973Z,8.40
2019-02-18T23:17:59.949Z,7.60
2019-02-18T23:20:40.534Z,7.80
2019-02-18T23:23:21.434Z,7.70
2019-02-18T23:26:01.781Z,8.13
2019-02-18T23:28:42.441Z,8.77
2019-02-18T23:31:23.412Z,7.60
2019-02-18T23:34:03.742Z,7.90
2019-02-18T23:36:44.556Z,6.90
2019-02-18T23:39:24.899Z,7.90
2019-02-18T23:42:05.203Z,7.63
2019-02-18T23:44:45.831Z,8.20
2019-02-18T23:47:26.458Z,7.30
2019-02-18T23:50:07.408Z,9.03
2019-02-18T23:52:48.419Z,8.27
2019-02-18T23:55:29.005Z,7.30
2019-02-18T23:58:09.481Z,8.40
